Sigfox identifier Datetime Temperature Humidity SNR
003BDC41 2018-10-09 08:49:58 20.8 38 17.7
003BDC41 2018-10-09 07:44:53 20.8 38 17.7
003BDC41 2018-10-09 06:39:48 20.8 38 17.6
003BDC41 2018-10-09 05:34:42 20.8 38 17.5
003BDC41 2018-10-09 01:14:15 20.8 37 17.2
003BDC41 2018-10-09 00:09:08 20.8 37 17.1
003BDC41 2018-10-08 23:04:06 20.8 37 17.1
003BDC41 2018-10-08 21:58:55 20.8 37 17.1
003BDC41 2018-10-08 20:53:50 20.8 37 17
003BDC41 2018-10-08 19:48:38 20.8 37 17
003BDC41 2018-10-08 18:43:34 20.8 36 16.9
003BDC41 2018-10-08 17:38:29 20.8 36 16.9
003BDC41 2018-10-08 16:33:17 20.8 36 16.8
003BDC41 2018-10-08 15:28:10 20.7 36 16.8
003BDC41 2018-10-08 14:23:00 20.8 36 16.8
003BDC41 2018-10-08 13:17:51 20.6 36 16.8
003BDC41 2018-10-08 12:12:41 20.6 36 16.8
003BDC41 2018-10-08 08:57:28 20.4 34 16.7
003BDC41 2018-10-08 05:42:03 20.4 35 16.8
003BDC41 2018-10-08 03:31:47 20.5 36 9.2
003BDC41 2018-10-08 01:21:37 20.6 37 9.2
003BDC41 2018-10-08 00:16:27 20.6 37 9.2
003BDC41 2018-10-07 22:06:18 20.6 38 9.2
003BDC41 2018-10-07 21:01:09 20.6 38 9.2
003BDC41 2018-10-07 19:56:00 20.6 38 9
003BDC41 2018-10-07 18:50:55 20.6 38 9.6
003BDC41 2018-10-07 16:40:49 20.6 38 9.9
003BDC41 2018-10-07 13:25:35 20.6 39 11.4
003BDC41 2018-10-07 12:20:31 20.6 39 11.9
003BDC41 2018-10-07 11:15:22 20.6 39 12.7
003BDC41 2018-10-07 09:05:15 20.6 39 13.7
003BDC41 2018-10-07 08:00:04 20.7 39 14.9
003BDC41 2018-10-07 06:55:04 20.7 39 15.5
003BDC41 2018-10-07 05:49:58 20.7 39 15.8
003BDC41 2018-10-07 03:39:50 20.8 40 16.6
003BDC41 2018-10-07 02:34:49 20.8 40 16.7
003BDC41 2018-10-07 00:24:32 20.8 40 16.7
003BDC41 2018-10-06 23:19:26 20.8 40 17.1
003BDC41 2018-10-06 20:04:07 20.8 40 17.7
003BDC41 2018-10-06 18:58:56 20.8 40 18.5
003BDC41 2018-10-06 14:38:31 21 40 18.6
003BDC41 2018-10-06 11:23:00 21 40 18.7
003BDC41 2018-10-06 10:17:48 21 40 19.1
003BDC41 2018-10-06 09:12:37 20.9 40 19.3
003BDC41 2018-10-06 08:07:25 21 41 19.5
003BDC41 2018-10-06 03:46:41 21 42 19.5
003BDC41 2018-10-05 23:26:02 21.2 43 19.9
003BDC41 2018-10-05 22:20:49 21.3 43 20.1
003BDC41 2018-10-05 21:15:40 21.3 43 20.1
003BDC41 2018-10-05 19:05:22 21.3 43 20.3
003BDC41 2018-10-05 16:54:57 21.4 43 20.4
003BDC41 2018-10-05 15:49:45 21.4 42 20.6
003BDC41 2018-10-05 14:44:32 21.3 41 20.5
003BDC41 2018-10-05 13:39:20 21.3 38 20.7
003BDC41 2018-10-05 12:34:08 21.2 37 20.7
003BDC41 2018-10-05 11:28:59 20.9 36 20.7
003BDC41 2018-10-05 09:18:31 20.7 34 20.6
003BDC41 2018-10-05 08:13:17 20.6 33 20.5
003BDC41 2018-10-05 07:08:11 20.6 33 20.6
003BDC41 2018-10-05 06:02:56 20.6 33 20.4
003BDC41 2018-10-05 04:57:42 20.6 34 20.7
003BDC41 2018-10-05 03:52:27 20.7 34 21
003BDC41 2018-10-05 02:47:14 20.8 34 21
003BDC41 2018-10-05 01:42:00 20.8 34 20.7
003BDC41 2018-10-05 00:36:47 20.8 34 20
003BDC41 2018-10-04 23:31:33 20.9 34 20.1
003BDC41 2018-10-04 22:26:20 21 34 20.6
003BDC41 2018-10-04 21:21:08 21 34 20
003BDC41 2018-10-04 20:15:52 21 34 19.7
003BDC41 2018-10-04 19:10:39 21 33 19.2
003BDC41 2018-10-04 18:05:28 21 34 20.4
003BDC41 2018-10-04 17:00:16 21 34 18.5
003BDC41 2018-10-04 15:55:04 21 32 12.2
003BDC41 2018-10-04 14:49:50 20.4 43 0